Time;durP1;ratioP1;P1;durP2;ratioP2;P2;SDS_P1;SDS_P2;PMS_P1;PMS_P2;Temp;Humidity;BMP_temperature;BMP_pressure;BME280_temperature;BME280_humidity;BME280_pressure;Samples;Min_cycle;Max_cycle;Signal;HPM_P1;HPM_P2
2021/05/13 00:01:29;;;;;;;7.37;6.60;;;;;;;-140.05;100.00;61859.38;5050554;28;20451;-70
2021/05/13 00:03:57;;;;;;;8.80;6.90;;;;;;;-140.05;100.00;61859.38;5049755;28;20447;-68
2021/05/13 00:06:24;;;;;;;9.13;6.83;;;;;;;-140.05;100.00;61859.38;5049927;28;20470;-69
2021/05/13 00:08:57;;;;;;;7.07;6.37;;;;;;;-140.05;100.00;61859.38;5049554;28;20443;-68
2021/05/13 00:11:31;;;;;;;8.90;6.50;;;;;;;-140.05;100.00;61859.38;5049742;28;20595;-69
2021/05/13 00:13:59;;;;;;;8.20;6.30;;;;;;;-140.05;100.00;61859.38;5049758;28;20496;-69
2021/05/13 00:16:32;;;;;;;11.20;6.97;;;;;;;-140.05;100.00;61859.38;5050031;28;20471;-69
2021/05/13 00:19:05;;;;;;;11.87;7.00;;;;;;;-140.05;100.00;61859.38;5049874;28;20443;-71
2021/05/13 00:21:32;;;;;;;8.20;6.60;;;;;;;-140.05;100.00;61859.38;5049843;28;20452;-76
2021/05/13 00:23:59;;;;;;;7.63;6.83;;;;;;;-140.05;100.00;61859.38;5051836;28;20907;-72
2021/05/13 00:26:37;;;;;;;7.93;6.30;;;;;;;-140.05;100.00;61859.38;5054191;28;20443;-70
2021/05/13 00:29:06;;;;;;;9.50;6.47;;;;;;;-140.05;100.00;61859.38;5053751;28;20488;-68
2021/05/13 00:31:33;;;;;;;7.33;6.63;;;;;;;-140.05;100.00;61859.38;5054011;28;20469;-69
2021/05/13 00:34:01;;;;;;;9.03;6.20;;;;;;;-140.05;100.00;61859.38;5039829;28;20975;-69
2021/05/13 00:36:29;;;;;;;10.97;6.80;;;;;;;-140.05;100.00;61859.38;5054124;28;20511;-66
2021/05/13 00:39:07;;;;;;;9.33;6.30;;;;;;;-140.05;100.00;61859.38;5052938;28;20470;-75
2021/05/13 00:41:35;;;;;;;7.87;6.73;;;;;;;-140.05;100.00;61859.38;5054027;28;20446;-71
2021/05/13 00:44:03;;;;;;;7.13;6.27;;;;;;;-140.05;100.00;61859.38;5053263;28;20435;-73
2021/05/13 00:46:31;;;;;;;8.57;6.67;;;;;;;-140.05;100.00;61859.38;5053944;28;20450;-68
2021/05/13 00:49:07;;;;;;;7.50;6.50;;;;;;;-140.05;100.00;61859.38;5053477;28;20450;-72
2021/05/13 00:51:35;;;;;;;9.40;6.73;;;;;;;-140.05;100.00;61859.38;5058400;28;20812;-65
2021/05/13 00:54:03;;;;;;;9.03;6.70;;;;;;;-140.05;100.00;61859.38;5053291;28;20439;-72
2021/05/13 00:56:31;;;;;;;9.80;6.53;;;;;;;-140.05;100.00;61859.38;5053718;28;20504;-68
2021/05/13 00:59:03;;;;;;;6.53;5.73;;;;;;;-140.05;100.00;61859.38;5052779;28;20441;-70
2021/05/13 01:04:17;;;;;;;7.87;5.87;;;;;;;-140.05;100.00;61859.38;5052439;28;20474;-71
2021/05/13 01:06:46;;;;;;;7.17;6.17;;;;;;;-140.05;100.00;61859.38;5052950;28;20458;-70
2021/05/13 01:09:21;;;;;;;6.67;5.97;;;;;;;-140.05;100.00;61859.38;5052548;28;20443;-68
2021/05/13 01:11:56;;;;;;;6.60;6.00;;;;;;;-140.05;100.00;61859.38;5053390;28;20866;-71
2021/05/13 01:19:35;;;;;;;10.00;7.67;;;;;;;-140.05;100.00;61859.38;5053375;28;20427;-72
2021/05/13 01:22:01;;;;;;;13.07;10.37;;;;;;;-140.05;100.00;61859.38;5052472;28;20843;-72
2021/05/13 01:24:29;;;;;;;12.47;11.17;;;;;;;-140.05;100.00;61859.38;5052817;28;20447;-69
2021/05/13 01:26:57;;;;;;;12.77;11.30;;;;;;;-140.05;100.00;61859.38;5052892;28;20922;-71
2021/05/13 01:29:27;;;;;;;13.63;12.23;;;;;;;-140.05;100.00;61859.38;5052743;28;20447;-70
2021/05/13 01:31:55;;;;;;;17.60;14.40;;;;;;;-140.05;100.00;61859.38;5053037;28;20577;-72
2021/05/13 01:34:23;;;;;;;20.70;15.03;;;;;;;-140.05;100.00;61859.38;5052736;28;20785;-68
2021/05/13 01:36:52;;;;;;;23.77;21.27;;;;;;;-140.05;100.00;61859.38;5051957;28;20449;-69
2021/05/13 01:39:20;;;;;;;21.27;18.97;;;;;;;-140.05;100.00;61859.38;5052201;28;21013;-70
2021/05/13 01:41:47;;;;;;;25.40;22.70;;;;;;;-140.05;100.00;61859.38;5052469;28;20928;-68
2021/05/13 01:44:14;;;;;;;32.07;24.40;;;;;;;-140.05;100.00;61859.38;5052632;28;20446;-71
2021/05/13 01:46:41;;;;;;;29.10;24.43;;;;;;;-140.05;100.00;61859.38;5052758;28;20442;-77
2021/05/13 01:49:21;;;;;;;30.20;24.17;;;;;;;-140.05;100.00;61859.38;5051895;28;20446;-68
2021/05/13 01:51:49;;;;;;;27.10;24.07;;;;;;;-140.05;100.00;61859.38;5052475;28;20476;-72
2021/05/13 01:54:19;;;;;;;27.23;24.33;;;;;;;-140.05;100.00;61859.38;5052202;28;20542;-70
2021/05/13 01:56:47;;;;;;;32.23;25.57;;;;;;;-140.05;100.00;61859.38;5053099;28;20435;-74
2021/05/13 01:59:15;;;;;;;29.00;24.47;;;;;;;-140.05;100.00;61859.38;5051789;28;20454;-70
2021/05/13 02:01:42;;;;;;;22.63;20.20;;;;;;;-140.05;100.00;61859.38;5052646;28;20446;-71
2021/05/13 02:04:09;;;;;;;20.00;17.27;;;;;;;-140.05;100.00;61859.38;5052136;28;20963;-70
2021/05/13 02:06:36;;;;;;;22.43;19.10;;;;;;;-140.05;100.00;61859.38;5051940;28;20467;-68
2021/05/13 02:09:04;;;;;;;20.17;17.93;;;;;;;-140.05;100.00;61859.38;5051214;28;20470;-70
2021/05/13 02:11:31;;;;;;;18.07;15.30;;;;;;;-140.05;100.00;61859.38;5051906;28;20446;-67
2021/05/13 02:13:58;;;;;;;13.57;12.13;;;;;;;-140.05;100.00;61859.38;5053250;28;20433;-70
2021/05/13 02:16:24;;;;;;;11.80;10.70;;;;;;;-140.05;100.00;61859.38;5053215;28;20451;-67
2021/05/13 02:18:51;;;;;;;10.83;9.83;;;;;;;-140.05;100.00;61859.38;5051752;28;20514;-72
2021/05/13 02:21:19;;;;;;;12.87;10.83;;;;;;;-140.05;100.00;61859.38;5052292;28;20442;-72
2021/05/13 02:23:46;;;;;;;19.80;10.97;;;;;;;-140.05;100.00;61859.38;5051434;28;20431;-68
2021/05/13 02:26:14;;;;;;;14.57;10.10;;;;;;;-140.05;100.00;61859.38;5052273;28;20584;-71
2021/05/13 02:28:41;;;;;;;10.67;9.67;;;;;;;-140.05;100.00;61859.38;5051502;28;20435;-75
2021/05/13 02:31:07;;;;;;;11.57;10.20;;;;;;;-140.05;100.00;61859.38;5051439;28;20880;-71
2021/05/13 02:33:35;;;;;;;10.70;9.60;;;;;;;-140.05;100.00;61859.38;5050832;28;20976;-68
2021/05/13 02:36:08;;;;;;;11.77;9.40;;;;;;;-140.05;100.00;61859.38;5051669;28;20501;-71
2021/05/13 02:38:36;;;;;;;10.40;9.10;;;;;;;-140.05;100.00;61859.38;5050650;28;20453;-69
2021/05/13 02:41:03;;;;;;;10.10;9.07;;;;;;;-140.05;100.00;61859.38;5067078;28;20473;-71
2021/05/13 02:43:30;;;;;;;9.77;8.87;;;;;;;-140.05;100.00;61859.38;5051192;28;20446;-73
2021/05/13 02:45:57;;;;;;;10.87;9.33;;;;;;;-140.05;100.00;61859.38;5051916;28;20474;-68
2021/05/13 02:48:24;;;;;;;9.87;8.87;;;;;;;-140.05;100.00;61859.38;5049645;28;20526;-71
2021/05/13 02:50:51;;;;;;;11.47;8.27;;;;;;;-140.05;100.00;61859.38;5051293;28;20447;-71
2021/05/13 02:53:17;;;;;;;10.03;8.60;;;;;;;-140.05;100.00;61859.38;5050048;28;20486;-68
2021/05/13 02:55:44;;;;;;;9.60;8.60;;;;;;;-140.05;100.00;61859.38;5051357;28;20481;-74
2021/05/13 02:58:11;;;;;;;10.17;8.40;;;;;;;-140.05;100.00;61859.38;5050611;28;20431;-71
2021/05/13 03:00:51;;;;;;;10.03;8.70;;;;;;;-140.05;100.00;61859.38;5050928;28;20910;-70
2021/05/13 03:03:18;;;;;;;9.90;8.90;;;;;;;-140.05;100.00;61859.38;5050989;28;20924;-72
2021/05/13 03:05:45;;;;;;;10.97;8.40;;;;;;;-140.05;100.00;61859.38;5051537;28;20443;-69
2021/05/13 03:08:14;;;;;;;9.70;8.80;;;;;;;-140.05;100.00;61859.38;5050010;28;20473;-71
2021/05/13 03:13:14;;;;;;;10.43;9.20;;;;;;;-140.05;100.00;61859.38;5050453;28;21056;-71
2021/05/13 03:15:41;;;;;;;11.17;9.10;;;;;;;-140.05;100.00;61859.38;5050603;28;20451;-68
2021/05/13 03:18:09;;;;;;;12.80;9.40;;;;;;;-140.05;100.00;61859.38;5050322;28;20536;-72
2021/05/13 03:20:42;;;;;;;9.77;8.77;;;;;;;-140.05;100.00;61859.38;5050816;28;20496;-73
2021/05/13 03:23:11;;;;;;;10.57;9.57;;;;;;;-140.05;100.00;61859.38;5050288;28;20447;-69
2021/05/13 03:25:41;;;;;;;10.50;9.27;;;;;;;-140.05;100.00;61859.38;5050506;28;20503;-70
2021/05/13 03:28:09;;;;;;;11.23;10.13;;;;;;;-140.05;100.00;61859.38;5050170;28;20447;-72
2021/05/13 03:30:40;;;;;;;13.43;12.03;;;;;;;-140.05;100.00;61859.38;5037097;28;20469;-69
2021/05/13 03:33:08;;;;;;;14.13;11.57;;;;;;;-140.05;100.00;61859.38;5049731;28;20475;-67
2021/05/13 03:35:35;;;;;;;15.27;10.83;;;;;;;-140.05;100.00;61859.38;5050236;28;21287;-68
2021/05/13 03:38:06;;;;;;;16.00;10.50;;;;;;;-140.05;100.00;61859.38;5050902;28;20447;-72
2021/05/13 03:40:35;;;;;;;16.70;13.00;;;;;;;-140.05;100.00;61859.38;5050021;28;20435;-70
2021/05/13 03:43:03;;;;;;;20.30;15.93;;;;;;;-140.05;100.00;61859.38;5051030;28;20831;-72
2021/05/13 03:45:33;;;;;;;22.10;19.73;;;;;;;-140.05;100.00;61859.38;5051078;28;20512;-72
2021/05/13 03:48:03;;;;;;;22.20;19.80;;;;;;;-140.05;100.00;61859.38;5051236;28;20450;-69
2021/05/13 03:50:36;;;;;;;22.33;19.90;;;;;;;-140.05;100.00;61859.38;5050921;28;20450;-69
2021/05/13 03:53:04;;;;;;;22.07;19.07;;;;;;;-140.05;100.00;61859.38;5050709;28;20467;-72
2021/05/13 03:55:32;;;;;;;26.43;19.73;;;;;;;-140.05;100.00;61859.38;5050548;28;20442;-71
2021/05/13 03:58:00;;;;;;;25.47;20.23;;;;;;;-140.05;100.00;61859.38;5049595;28;20475;-70
2021/05/13 04:03:07;;;;;;;24.67;19.13;;;;;;;-140.05;100.00;61859.38;5040980;28;20443;-74
2021/05/13 04:05:34;;;;;;;22.73;20.33;;;;;;;-140.05;100.00;61859.38;5046364;28;20519;-72
2021/05/13 04:08:03;;;;;;;22.87;19.87;;;;;;;-140.05;100.00;61859.38;5036029;28;20481;-75
2021/05/13 04:10:31;;;;;;;22.10;19.70;;;;;;;-140.05;100.00;61859.38;5035150;28;20456;-76
2021/05/13 04:13:01;;;;;;;24.53;19.67;;;;;;;-140.05;100.00;61859.38;5040031;28;20471;-74
2021/05/13 04:15:28;;;;;;;23.80;19.97;;;;;;;-140.05;100.00;61859.38;5040895;28;20964;-74
2021/05/13 04:17:56;;;;;;;28.53;21.67;;;;;;;-140.05;100.00;61859.38;5048246;28;20442;-74
2021/05/13 04:20:23;;;;;;;39.00;28.37;;;;;;;-140.05;100.00;61859.38;5041458;28;20542;-70
2021/05/13 04:22:50;;;;;;;51.63;38.73;;;;;;;-140.05;100.00;61859.38;5043961;28;20521;-73
2021/05/13 04:25:18;;;;;;;57.77;41.97;;;;;;;-140.05;100.00;61859.38;5046563;28;20530;-72
2021/05/13 04:27:48;;;;;;;43.60;33.90;;;;;;;-140.05;100.00;61859.38;5042344;28;21009;-71
2021/05/13 04:30:15;;;;;;;39.90;29.80;;;;;;;-140.05;100.00;61859.38;5034915;28;20439;-70
2021/05/13 04:32:45;;;;;;;33.63;24.77;;;;;;;-140.05;100.00;61859.38;5049337;28;20511;-70
2021/05/13 04:35:12;;;;;;;31.73;23.47;;;;;;;-140.05;100.00;61859.38;5033041;28;20439;-74
2021/05/13 04:37:40;;;;;;;30.00;21.93;;;;;;;-140.05;100.00;61859.38;5032128;28;20498;-74
2021/05/13 04:40:07;;;;;;;30.70;22.83;;;;;;;-140.05;100.00;61859.38;5032960;28;20450;-71
2021/05/13 04:42:34;;;;;;;27.87;21.27;;;;;;;-140.05;100.00;61859.38;5036480;28;20869;-72
2021/05/13 04:45:01;;;;;;;30.53;22.43;;;;;;;-140.05;100.00;61859.38;5031776;28;20446;-69
2021/05/13 04:48:05;;;;;;;25.90;20.87;;;;;;;-140.05;100.00;61859.38;5037634;28;20432;-74
2021/05/13 04:50:18;;;;;;;26.00;21.13;;;;;;;-140.05;100.00;61859.38;5033181;28;20443;-68
2021/05/13 04:52:45;;;;;;;24.83;20.07;;;;;;;-140.05;100.00;61859.38;5038321;28;20468;-76
2021/05/13 04:55:12;;;;;;;87.60;64.70;;;;;;;-140.05;100.00;61859.38;5030771;28;20483;-69
2021/05/13 04:57:39;;;;;;;56.90;44.50;;;;;;;-140.05;100.00;61859.38;5031426;28;20439;-67
2021/05/13 05:00:08;;;;;;;88.23;78.63;;;;;;;-140.05;100.00;61859.38;5031906;28;20440;-69
2021/05/13 05:02:35;;;;;;;27.70;21.37;;;;;;;-140.05;100.00;61859.38;5039795;28;20502;-66
2021/05/13 05:05:05;;;;;;;27.87;21.93;;;;;;;-140.05;100.00;61859.38;5041616;28;20452;-67
2021/05/13 05:07:31;;;;;;;28.37;23.37;;;;;;;-140.05;100.00;61859.38;5029208;28;21022;-67
2021/05/13 05:09:58;;;;;;;29.23;24.17;;;;;;;-140.05;100.00;61859.38;5034580;28;20446;-67
2021/05/13 05:12:25;;;;;;;30.03;24.77;;;;;;;-140.05;100.00;61859.38;5040232;28;20831;-67
2021/05/13 05:14:52;;;;;;;31.67;26.03;;;;;;;-140.05;100.00;61859.38;5036255;28;20465;-66
2021/05/13 05:17:19;;;;;;;34.40;25.97;;;;;;;-140.05;100.00;61859.38;5036385;28;20450;-66
2021/05/13 05:19:46;;;;;;;33.97;25.97;;;;;;;-140.05;100.00;61859.38;5038935;28;20479;-68
2021/05/13 05:22:13;;;;;;;34.33;26.30;;;;;;;-140.05;100.00;61859.38;5047736;28;20440;-66
2021/05/13 05:24:40;;;;;;;35.70;25.23;;;;;;;-140.05;100.00;61859.38;5037812;28;20443;-67
2021/05/13 05:27:07;;;;;;;31.30;24.63;;;;;;;-140.05;100.00;61859.38;5037314;28;20550;-66
2021/05/13 05:29:34;;;;;;;74.00;63.43;;;;;;;-140.05;100.00;61859.38;5041682;28;20434;-66
2021/05/13 05:32:01;;;;;;;37.83;27.17;;;;;;;-140.05;100.00;61859.38;5044696;28;20486;-65
2021/05/13 05:34:28;;;;;;;36.73;26.20;;;;;;;-140.05;100.00;61859.38;5035869;28;20539;-65
2021/05/13 05:36:56;;;;;;;33.50;24.87;;;;;;;-140.05;100.00;61859.38;5056476;28;20457;-64
2021/05/13 05:39:24;;;;;;;37.43;26.57;;;;;;;-140.05;100.00;61859.38;5058268;28;20542;-65
2021/05/13 05:41:53;;;;;;;38.50;26.10;;;;;;;-140.05;100.00;61859.38;5048945;28;20982;-64
2021/05/13 05:44:21;;;;;;;39.80;27.53;;;;;;;-140.05;100.00;61859.38;5046899;28;20447;-65
2021/05/13 05:46:48;;;;;;;37.93;28.17;;;;;;;-140.05;100.00;61859.38;5067831;28;20864;-66
2021/05/13 05:49:16;;;;;;;42.90;29.73;;;;;;;-140.05;100.00;61859.38;5045582;28;20886;-65
2021/05/13 05:51:43;;;;;;;40.07;29.83;;;;;;;-140.05;100.00;61859.38;5054490;28;21060;-65
2021/05/13 05:54:10;;;;;;;42.13;31.47;;;;;;;-140.05;100.00;61859.38;5057552;28;20869;-65
2021/05/13 05:56:37;;;;;;;39.23;29.80;;;;;;;-140.05;100.00;61859.38;5056466;28;20447;-65
2021/05/13 05:59:04;;;;;;;38.13;29.97;;;;;;;-140.05;100.00;61859.38;5041077;28;20440;-66
2021/05/13 06:01:34;;;;;;;39.60;32.17;;;;;;;-140.05;100.00;61859.38;5054068;28;20447;-66
2021/05/13 06:04:02;;;;;;;39.43;33.20;;;;;;;-140.05;100.00;61859.38;5048825;28;20932;-65
2021/05/13 06:06:28;;;;;;;43.80;33.47;;;;;;;-140.05;100.00;61859.38;5052190;28;20959;-66
2021/05/13 06:08:55;;;;;;;48.03;34.60;;;;;;;-140.05;100.00;61859.38;5051444;28;20467;-66
2021/05/13 06:11:22;;;;;;;46.73;34.20;;;;;;;-140.05;100.00;61859.38;5051778;28;20480;-65
2021/05/13 06:13:49;;;;;;;46.10;32.83;;;;;;;-140.05;100.00;61859.38;5052014;28;20475;-66
2021/05/13 06:16:16;;;;;;;42.20;34.13;;;;;;;-140.05;100.00;61859.38;5052082;28;20443;-66
2021/05/13 06:18:54;;;;;;;44.77;33.73;;;;;;;-140.05;100.00;61859.38;5050472;28;20443;-66
2021/05/13 06:21:22;;;;;;;46.77;33.33;;;;;;;-140.05;100.00;61859.38;5051522;28;20446;-67
2021/05/13 06:23:52;;;;;;;47.90;37.10;;;;;;;-140.05;100.00;61859.38;5051179;28;20461;-67
2021/05/13 06:26:28;;;;;;;47.07;36.80;;;;;;;-140.05;100.00;61859.38;5056044;28;20447;-66
2021/05/13 06:29:05;;;;;;;45.47;36.43;;;;;;;-140.05;100.00;61859.38;5038311;28;20486;-65
2021/05/13 06:31:36;;;;;;;46.27;36.97;;;;;;;-140.05;100.00;61859.38;5052031;28;21034;-66
2021/05/13 06:34:04;;;;;;;49.47;36.33;;;;;;;-140.05;100.00;61859.38;5051465;28;20541;-66
2021/05/13 06:36:31;;;;;;;47.70;38.57;;;;;;;-140.05;100.00;61859.38;5051705;28;20435;-65
2021/05/13 06:38:58;;;;;;;56.67;40.80;;;;;;;-140.05;100.00;61859.38;5050812;28;20951;-66
2021/05/13 06:41:25;;;;;;;50.70;39.77;;;;;;;-140.05;100.00;61859.38;5051925;28;20435;-66
2021/05/13 06:43:52;;;;;;;54.37;40.50;;;;;;;-140.05;100.00;61859.38;5050560;28;20449;-67
2021/05/13 06:46:22;;;;;;;45.40;37.63;;;;;;;-140.05;100.00;61859.38;5051956;28;20439;-67
2021/05/13 06:48:51;;;;;;;49.17;39.63;;;;;;;-140.05;100.00;61859.38;5050775;28;20439;-66
2021/05/13 06:51:19;;;;;;;46.20;37.70;;;;;;;-140.05;100.00;61859.38;5051069;28;20445;-68
2021/05/13 06:53:46;;;;;;;45.30;38.13;;;;;;;-140.05;100.00;61859.38;5050606;28;20549;-68
2021/05/13 06:56:14;;;;;;;47.27;37.73;;;;;;;-140.05;100.00;61859.38;5051216;28;20968;-66
2021/05/13 06:58:41;;;;;;;48.37;35.93;;;;;;;-140.05;100.00;61859.38;5050800;28;20534;-66
2021/05/13 07:01:08;;;;;;;51.53;40.57;;;;;;;-140.05;100.00;61859.38;5049660;28;20453;-67
2021/05/13 07:03:35;;;;;;;56.53;46.03;;;;;;;-140.05;100.00;61859.38;5050665;28;20580;-67
2021/05/13 07:06:02;;;;;;;46.20;38.77;;;;;;;-140.05;100.00;61859.38;5050463;28;20526;-67
2021/05/13 07:08:29;;;;;;;43.53;36.57;;;;;;;-140.05;100.00;61859.38;5049083;28;20431;-67
2021/05/13 07:10:56;;;;;;;41.33;36.33;;;;;;;-140.05;100.00;61859.38;5051181;28;20533;-66
2021/05/13 07:13:23;;;;;;;45.40;34.13;;;;;;;-140.05;100.00;61859.38;5050214;28;20471;-68
2021/05/13 07:15:50;;;;;;;40.33;35.80;;;;;;;-140.05;100.00;61859.38;5051240;28;20445;-68
2021/05/13 07:18:17;;;;;;;41.23;32.53;;;;;;;-140.05;100.00;61859.38;5050107;28;20443;-67
2021/05/13 07:20:46;;;;;;;39.43;32.33;;;;;;;-140.05;100.00;61859.38;5050923;28;20891;-67
2021/05/13 07:23:13;;;;;;;33.70;28.87;;;;;;;-140.05;100.00;61859.38;5049632;28;20805;-67
2021/05/13 07:25:41;;;;;;;36.47;29.43;;;;;;;-140.05;100.00;61859.38;5050903;28;20446;-67
2021/05/13 07:28:09;;;;;;;33.57;28.10;;;;;;;-140.05;100.00;61859.38;5050256;28;20467;-67
2021/05/13 07:30:36;;;;;;;34.23;28.03;;;;;;;-140.05;100.00;61859.38;5050617;28;20442;-69
2021/05/13 07:33:03;;;;;;;32.97;27.03;;;;;;;-140.05;100.00;61859.38;5049525;28;20466;-66
2021/05/13 07:35:30;;;;;;;33.33;27.97;;;;;;;-140.05;100.00;61859.38;5050615;28;20434;-67
2021/05/13 07:37:57;;;;;;;32.20;27.03;;;;;;;-140.05;100.00;61859.38;5049804;28;20449;-66
2021/05/13 07:40:28;;;;;;;36.77;27.27;;;;;;;-140.05;100.00;61859.38;5051057;28;20446;-67
2021/05/13 07:42:55;;;;;;;33.23;25.97;;;;;;;-140.05;100.00;61859.38;5049791;28;20537;-68
2021/05/13 07:45:24;;;;;;;29.00;25.43;;;;;;;-140.05;100.00;61859.38;5050157;28;20493;-67
2021/05/13 07:47:51;;;;;;;30.83;25.97;;;;;;;-140.05;100.00;61859.38;5050330;28;20466;-69
2021/05/13 07:50:21;;;;;;;36.20;27.43;;;;;;;-140.05;100.00;61859.38;5053073;28;20814;-66
2021/05/13 07:52:49;;;;;;;31.13;26.37;;;;;;;-140.05;100.00;61859.38;5049739;28;20458;-67
2021/05/13 07:55:17;;;;;;;30.20;23.83;;;;;;;-140.05;100.00;61859.38;5050579;28;20483;-67
2021/05/13 07:57:44;;;;;;;28.27;24.87;;;;;;;-140.05;100.00;61859.38;5050046;28;20442;-65
2021/05/13 08:00:12;;;;;;;31.57;25.83;;;;;;;-140.05;100.00;61859.38;5050430;28;20842;-66
2021/05/13 08:02:40;;;;;;;27.17;23.47;;;;;;;-140.05;100.00;61859.38;5049367;28;20427;-67
2021/05/13 08:05:09;;;;;;;29.50;24.40;;;;;;;-140.05;100.00;61859.38;5050141;28;20464;-67
2021/05/13 08:07:36;;;;;;;30.60;26.07;;;;;;;-140.05;100.00;61859.38;5049421;28;20574;-67
2021/05/13 08:10:04;;;;;;;29.63;23.37;;;;;;;-140.05;100.00;61859.38;5049742;28;20512;-68
2021/05/13 08:12:31;;;;;;;27.13;22.83;;;;;;;-140.05;100.00;61859.38;5049603;28;21065;-67
2021/05/13 08:14:58;;;;;;;29.13;23.30;;;;;;;-140.05;100.00;61859.38;5049380;28;21079;-68
2021/05/13 08:17:25;;;;;;;28.77;24.93;;;;;;;-140.05;100.00;61859.38;5049523;28;20445;-66
2021/05/13 08:19:52;;;;;;;29.07;21.90;;;;;;;-140.05;100.00;61859.38;5049582;28;20449;-68
2021/05/13 08:22:19;;;;;;;30.40;23.67;;;;;;;-140.05;100.00;61859.38;5049413;28;20669;-67
2021/05/13 08:24:46;;;;;;;30.37;21.87;;;;;;;-140.05;100.00;61859.38;5050230;28;20450;-67
2021/05/13 08:27:13;;;;;;;26.73;22.23;;;;;;;-140.05;100.00;61859.38;5035521;28;20963;-66
2021/05/13 08:29:40;;;;;;;31.97;23.90;;;;;;;-140.05;100.00;61859.38;5049988;28;20451;-67
2021/05/13 08:32:06;;;;;;;25.77;21.33;;;;;;;-140.05;100.00;61859.38;5048919;28;20682;-66
2021/05/13 08:34:33;;;;;;;27.47;22.17;;;;;;;-140.05;100.00;61859.38;5049873;28;20475;-68
2021/05/13 08:37:02;;;;;;;24.17;21.63;;;;;;;-140.05;100.00;61859.38;5049446;28;20196;-68
2021/05/13 08:39:30;;;;;;;24.60;22.00;;;;;;;-140.05;100.00;61859.38;5050175;28;20207;-67
2021/05/13 08:42:00;;;;;;;29.43;23.17;;;;;;;-140.05;100.00;61859.38;5049464;28;20203;-67
2021/05/13 08:44:28;;;;;;;25.83;22.43;;;;;;;-140.05;100.00;61859.38;5051505;28;20454;-66
2021/05/13 08:46:57;;;;;;;27.07;20.87;;;;;;;-140.05;100.00;61859.38;5053436;28;20200;-68
2021/05/13 08:49:27;;;;;;;28.33;21.73;;;;;;;-140.05;100.00;61859.38;5053577;28;20650;-66
2021/05/13 08:51:54;;;;;;;29.97;21.37;;;;;;;-140.05;100.00;61859.38;5053435;28;20447;-66
2021/05/13 08:54:23;;;;;;;26.00;20.20;;;;;;;-140.05;100.00;61859.38;5053493;28;20467;-68
2021/05/13 08:56:51;;;;;;;26.10;21.27;;;;;;;-140.05;100.00;61859.38;5053561;28;20818;-67
2021/05/13 08:59:20;;;;;;;23.90;20.33;;;;;;;-140.05;100.00;61859.38;5034631;28;20205;-68
2021/05/13 09:02:01;;;;;;;27.33;20.97;;;;;;;-140.05;100.00;61859.38;5044438;28;20439;-67
2021/05/13 09:04:43;;;;;;;27.30;21.30;;;;;;;-140.05;100.00;61859.38;5042790;28;20191;-67
2021/05/13 09:07:22;;;;;;;28.10;21.90;;;;;;;-140.05;100.00;61859.38;5052915;28;20240;-65
2021/05/13 09:10:08;;;;;;;23.87;21.13;;;;;;;-140.05;100.00;61859.38;5051798;28;20449;-68
2021/05/13 09:12:46;;;;;;;24.80;20.30;;;;;;;-140.05;100.00;61859.38;5053346;28;20219;-66
2021/05/13 09:15:18;;;;;;;24.67;22.07;;;;;;;-140.05;100.00;61859.38;5053311;28;20215;-66
2021/05/13 09:17:56;;;;;;;27.10;19.70;;;;;;;-140.05;100.00;61859.38;5052897;28;20254;-67
2021/05/13 09:20:29;;;;;;;25.53;19.57;;;;;;;-140.05;100.00;61859.38;5052650;28;20496;-66
2021/05/13 09:23:36;;;;;;;24.70;19.70;;;;;;;-140.05;100.00;61859.38;5051920;28;20640;-68
2021/05/13 09:26:03;;;;;;;28.40;18.83;;;;;;;-140.05;100.00;61859.38;5011203;28;20233;-66
2021/05/13 09:28:31;;;;;;;25.33;20.57;;;;;;;-140.05;100.00;61859.38;5026735;28;20315;-67
2021/05/13 09:30:58;;;;;;;24.30;19.00;;;;;;;-140.05;100.00;61859.38;5041034;28;20330;-67
2021/05/13 09:33:42;;;;;;;25.10;17.83;;;;;;;-140.05;100.00;61859.38;5052125;28;20361;-67
2021/05/13 09:36:23;;;;;;;22.57;18.50;;;;;;;-140.05;100.00;61859.38;5052942;28;20197;-67
2021/05/13 09:38:50;;;;;;;25.13;18.80;;;;;;;-140.05;100.00;61859.38;5051722;28;20666;-66
2021/05/13 09:41:34;;;;;;;20.97;17.83;;;;;;;-140.05;100.00;61859.38;5052749;28;20195;-66
2021/05/13 09:44:02;;;;;;;18.90;16.10;;;;;;;-140.05;100.00;61859.38;5050544;28;20295;-68
2021/05/13 09:46:34;;;;;;;18.13;16.20;;;;;;;-140.05;100.00;61859.38;5053524;28;20584;-66
2021/05/13 09:49:02;;;;;;;24.73;17.97;;;;;;;-140.05;100.00;61859.38;5052399;28;20224;-65
2021/05/13 09:51:36;;;;;;;18.57;15.13;;;;;;;-140.05;100.00;61859.38;5053608;28;20877;-65
2021/05/13 09:54:17;;;;;;;21.07;14.90;;;;;;;-140.05;100.00;61859.38;5052090;28;20277;-68
2021/05/13 09:56:47;;;;;;;18.27;14.53;;;;;;;-140.05;100.00;61859.38;5052247;28;20251;-68
2021/05/13 09:59:31;;;;;;;17.90;14.13;;;;;;;-140.05;100.00;61859.38;5050457;28;20198;-66
2021/05/13 10:02:02;;;;;;;20.13;13.00;;;;;;;-140.05;100.00;61859.38;5052036;28;20192;-68
2021/05/13 10:04:30;;;;;;;18.87;14.10;;;;;;;-140.05;100.00;61859.38;5051862;28;20576;-67
2021/05/13 10:06:57;;;;;;;18.17;13.53;;;;;;;-140.05;100.00;61859.38;5051721;28;20224;-66
2021/05/13 10:09:25;;;;;;;18.00;13.80;;;;;;;-140.05;100.00;61859.38;5051964;28;20283;-69
2021/05/13 10:11:57;;;;;;;15.43;12.73;;;;;;;-140.05;100.00;61859.38;5038466;28;20203;-67
2021/05/13 10:14:26;;;;;;;18.27;12.97;;;;;;;-140.05;100.00;61859.38;5052257;28;20265;-68
2021/05/13 10:16:56;;;;;;;17.23;12.50;;;;;;;-140.05;100.00;61859.38;5051916;28;20288;-66
2021/05/13 10:19:28;;;;;;;19.63;13.80;;;;;;;-140.05;100.00;61859.38;5051615;28;20195;-67
2021/05/13 10:21:59;;;;;;;17.93;10.43;;;;;;;-140.05;100.00;61859.38;5051427;28;20771;-66
2021/05/13 10:24:26;;;;;;;13.97;10.10;;;;;;;-140.05;100.00;61859.38;5052465;28;20250;-68
2021/05/13 10:26:53;;;;;;;15.13;9.57;;;;;;;-140.05;100.00;61859.38;5051992;28;20583;-66
2021/05/13 10:29:23;;;;;;;13.47;10.10;;;;;;;-140.05;100.00;61859.38;5051612;28;20673;-67
2021/05/13 10:32:17;;;;;;;16.67;10.10;;;;;;;-140.05;100.00;61859.38;5051139;28;20705;-66
2021/05/13 10:34:49;;;;;;;13.87;8.77;;;;;;;-140.05;100.00;61859.38;5051967;28;20226;-66
2021/05/13 10:37:39;;;;;;;12.90;9.27;;;;;;;-140.05;100.00;61859.38;5051493;28;20203;-67
2021/05/13 10:40:13;;;;;;;11.57;8.73;;;;;;;-140.05;100.00;61859.38;5051463;28;20220;-67
2021/05/13 10:42:42;;;;;;;17.53;10.60;;;;;;;-140.05;100.00;61859.38;5051693;28;20205;-67
2021/05/13 10:45:24;;;;;;;12.90;10.73;;;;;;;-140.05;100.00;61859.38;5051680;28;20184;-65
2021/05/13 10:48:22;;;;;;;11.43;8.67;;;;;;;-140.05;100.00;61859.38;5051085;28;20200;-66
2021/05/13 10:50:51;;;;;;;14.23;9.07;;;;;;;-140.05;100.00;61859.38;5051435;28;20203;-68
2021/05/13 10:53:42;;;;;;;13.70;9.67;;;;;;;-140.05;100.00;61859.38;5051275;28;20189;-66
2021/05/13 10:56:11;;;;;;;15.70;10.43;;;;;;;-140.05;100.00;61859.38;5051408;28;20273;-67
2021/05/13 10:59:00;;;;;;;17.43;11.27;;;;;;;-140.05;100.00;61859.38;5050900;28;20201;-66
2021/05/13 11:01:50;;;;;;;15.07;11.97;;;;;;;-140.05;100.00;61859.38;5039271;28;20287;-67
2021/05/13 11:04:20;;;;;;;16.77;11.03;;;;;;;-140.05;100.00;61859.38;5050566;28;20200;-67
2021/05/13 11:06:50;;;;;;;17.70;11.17;;;;;;;-140.05;100.00;61859.38;5037548;28;20220;-67
2021/05/13 11:09:48;;;;;;;14.87;10.43;;;;;;;-140.05;100.00;61859.38;5048665;28;20201;-65
2021/05/13 11:12:17;;;;;;;15.93;10.70;;;;;;;-140.05;100.00;61859.38;5048457;28;20212;-66
2021/05/13 11:15:02;;;;;;;12.83;9.97;;;;;;;-140.05;100.00;61859.38;5050589;28;20666;-66
2021/05/13 11:17:44;;;;;;;14.23;9.30;;;;;;;-140.05;100.00;61859.38;5050747;28;20760;-66
2021/05/13 11:20:25;;;;;;;12.67;8.77;;;;;;;-140.05;100.00;61859.38;5050877;28;20197;-67
2021/05/13 11:22:53;;;;;;;16.07;8.73;;;;;;;-140.05;100.00;61859.38;5050330;28;20200;-67